Meteorología y climatología de Navarra
Datos de la estación - Meteo Navarra

Estación de Erremendia (Salazar) GN

Altitud 1047 m.


Datos desde el 30/06/2020 hasta el 01/07/2020 en horario solar
Los datos son PROVISIONALES

Anterior Página 1 de 1 Siguiente Descargar: Formato para Excel 2000 o superior   Formato csv   Formato para OpenOffice Calc
Fecha Temperatura Humedad relativa Radiación global Insolación Precipitación Vel. viento 10 m Vel. viento 10 m Dir. viento 10 m
ºC % W/m² s l/m² m/s km/h º
30/06/2020 0:00 11.0 97 0.0 0 0.0 0.8 3.0 223
30/06/2020 0:10 10.9 97 0.0 0 0.0 0.9 3.1 205
30/06/2020 0:20 10.7 97 0.0 0 0.0 0.9 3.2 199
30/06/2020 0:30 10.5 97 0.0 0 0.0 0.9 3.2 202
30/06/2020 0:40 10.3 97 0.0 0 0.0 1.1 3.8 197
30/06/2020 0:50 9.9 97 0.0 0 0.0 1.1 3.9 206
30/06/2020 1:00 9.4 97 0.0 0 0.0 1.0 3.6 209
30/06/2020 1:10 9.1 97 0.0 0 0.0 1.1 4.0 195
30/06/2020 1:20 9.1 97 0.0 0 0.0 0.3 1.2 171
30/06/2020 1:30 9.2 97 0.0 0 0.0 0.4 1.3 219
30/06/2020 1:40 9.2 97 0.0 0 0.0 0.5 1.8 156
30/06/2020 1:50 9.6 98 0.0 0 0.0 0.3 1.2 196
30/06/2020 2:00 9.4 97 0.0 0 0.0 0.2 0.8 310
30/06/2020 2:10 9.1 97 0.0 0 0.0 0.3 1.2 70
30/06/2020 2:20 8.8 97 0.0 0 0.0 0.1 0.2 74
30/06/2020 2:30 8.3 97 0.0 0 0.0 0.1 0.3 83
30/06/2020 2:40 8.1 97 0.0 0 0.0 0.6 2.1 73
30/06/2020 2:50 7.9 97 0.0 0 0.0 0.6 2.1 82
30/06/2020 3:00 7.6 97 0.0 0 0.0 0.0 0.1 83
30/06/2020 3:10 7.4 97 0.0 0 0.0 0.0 0.0 0
30/06/2020 3:20 7.3 97 0.0 0 0.0 0.2 0.8 53
30/06/2020 3:30 7.2 97 0.0 0 0.0 0.6 2.1 72
30/06/2020 3:40 6.9 97 0.0 0 0.0 0.0 0.1 76
30/06/2020 3:50 6.8 98 0.0 0 0.0 0.0 0.1 83
30/06/2020 4:00 6.8 98 0.0 0 0.0 0.2 0.7 47
30/06/2020 4:10 6.8 98 0.0 0 0.0 1.0 3.7 69
30/06/2020 4:20 6.9 98 0.0 0 0.0 1.0 3.5 71
30/06/2020 4:30 6.9 98 0.0 0 0.0 0.6 2.3 83
30/06/2020 4:40 6.9 98 0.0 0 0.0 0.4 1.3 83
30/06/2020 4:50 6.5 98 0.0 0 0.0 0.3 1.0 83
30/06/2020 5:00 6.8 98 27.8 156 0.0 0.3 1.2 81
30/06/2020 5:10 7.1 98 61.3 600 0.0 0.2 0.6 83
30/06/2020 5:20 7.5 98 48.1 216 0.0 0.4 1.3 324
30/06/2020 5:30 7.7 98 49.5 56 0.0 0.0 0.1 319
30/06/2020 5:40 8.4 98 76.3 224 0.0 0.6 2.2 74
30/06/2020 5:50 8.9 98 62.0 0 0.0 1.3 4.7 68
30/06/2020 6:00 9.7 98 133.3 352 0.0 0.5 1.7 81
30/06/2020 6:10 11.1 98 210.0 574 0.0 0.1 0.2 73
30/06/2020 6:20 12.1 98 256.1 600 0.0 0.1 0.4 24
30/06/2020 6:30 13.0 97 279.9 600 0.0 0.2 0.8 243
30/06/2020 6:40 13.6 96 288.9 600 0.0 0.3 1.1 287
30/06/2020 6:50 13.7 92 320.6 600 0.0 0.6 2.1 298
30/06/2020 7:00 14.8 82 354.5 600 0.0 0.5 1.9 287
30/06/2020 7:10 15.8 75 386.6 600 0.0 1.0 3.4 291
30/06/2020 7:20 15.8 76 414.9 600 0.0 1.1 3.8 285
30/06/2020 7:30 16.0 77 445.8 600 0.0 1.0 3.5 278
30/06/2020 7:40 17.0 73 481.2 600 0.0 0.5 1.7 257
30/06/2020 7:50 18.4 71 511.8 600 0.0 0.5 1.8 313
30/06/2020 8:00 19.3 68 542.1 600 0.0 0.2 0.6 324
30/06/2020 8:10 20.4 66 568.2 600 0.0 0.6 2.0 314
30/06/2020 8:20 20.7 65 597.7 600 0.0 0.2 0.8 54
30/06/2020 8:30 21.4 66 624.2 600 0.0 0.6 2.1 34
30/06/2020 8:40 21.2 67 649.6 600 0.0 1.1 4.0 15
30/06/2020 8:50 21.3 68 674.8 600 0.0 1.1 3.8 308
30/06/2020 9:00 21.6 68 703.6 600 0.0 0.5 1.8 2
30/06/2020 9:10 22.0 66 726.4 600 0.0 1.5 5.4 324
30/06/2020 9:20 21.6 68 754.8 600 0.0 2.1 7.6 342
30/06/2020 9:30 21.9 68 777.3 600 0.0 2.0 7.3 78
30/06/2020 9:40 22.4 67 796.2 600 0.0 1.1 4.1 98
30/06/2020 9:50 22.5 65 794.7 594 0.0 2.2 7.8 190
30/06/2020 10:00 22.1 65 729.7 484 0.0 3.3 11.9 189
30/06/2020 10:10 22.1 65 852.0 600 0.0 2.3 8.4 163
30/06/2020 10:20 22.5 66 879.0 600 0.0 2.5 9.1 140
30/06/2020 10:30 22.3 66 928.0 600 0.0 2.2 8.0 166
30/06/2020 10:40 22.8 67 941.0 576 0.0 2.7 9.8 161
30/06/2020 10:50 23.3 66 986.0 592 0.0 1.5 5.3 198
30/06/2020 11:00 23.6 66 949.0 580 0.0 1.9 6.7 194
30/06/2020 11:10 23.4 66 994.0 578 0.0 2.4 8.7 169
30/06/2020 11:20 23.6 66 1044.0 600 0.0 1.6 5.8 179
30/06/2020 11:30 23.6 66 913.0 512 0.0 2.8 10.2 222
30/06/2020 11:40 23.5 67 1061.0 584 0.0 2.8 10.2 222
30/06/2020 11:50 23.8 67 1066.0 574 0.0 2.9 10.3 207
30/06/2020 12:00 24.0 66 1052.0 600 0.0 1.8 6.6 196
30/06/2020 12:10 23.7 67 768.3 394 0.0 2.2 8.0 238
30/06/2020 12:20 24.0 67 1003.0 600 0.0 1.5 5.5 233
30/06/2020 12:30 24.3 66 963.0 594 0.0 2.5 8.9 202
30/06/2020 12:40 24.0 66 966.0 600 0.0 1.8 6.3 221
30/06/2020 12:50 24.5 66 955.0 600 0.0 2.2 7.7 207
30/06/2020 13:00 24.5 65 969.0 594 0.0 2.0 7.0 241
30/06/2020 13:10 24.8 65 975.0 600 0.0 2.4 8.6 245
30/06/2020 13:20 24.9 65 963.0 600 0.0 2.6 9.2 253
30/06/2020 13:30 25.2 63 962.0 600 0.0 1.6 5.9 248
30/06/2020 13:40 25.2 62 915.0 584 0.0 2.5 9.0 262
30/06/2020 13:50 25.0 62 921.0 600 0.0 2.9 10.4 272
30/06/2020 14:00 25.3 61 914.0 600 0.0 2.0 7.3 264
30/06/2020 14:10 25.5 60 877.0 600 0.0 1.5 5.5 239
30/06/2020 14:20 25.6 59 859.0 600 0.0 2.2 8.0 244
30/06/2020 14:30 25.9 60 847.0 600 0.0 2.2 8.1 247
30/06/2020 14:40 25.9 57 815.0 600 0.0 2.3 8.1 255
30/06/2020 14:50 26.0 56 788.8 600 0.0 2.3 8.3 246
30/06/2020 15:00 26.1 57 768.7 600 0.0 2.3 8.4 258
30/06/2020 15:10 26.3 56 748.0 600 0.0 1.5 5.4 226
30/06/2020 15:20 26.5 55 716.0 600 0.0 2.4 8.5 228
30/06/2020 15:30 26.5 53 697.0 600 0.0 2.1 7.6 251
30/06/2020 15:40 26.7 52 691.0 600 0.0 2.6 9.3 249
30/06/2020 15:50 26.6 53 590.6 556 0.0 2.2 7.8 264
30/06/2020 16:00 26.5 54 567.5 584 0.0 2.1 7.5 244
30/06/2020 16:10 26.8 53 542.6 600 0.0 1.7 6.1 238
30/06/2020 16:20 26.4 52 536.6 600 0.0 2.4 8.7 236
30/06/2020 16:30 26.7 52 527.6 484 0.0 2.6 9.2 234
30/06/2020 16:40 26.3 52 455.3 400 0.0 2.8 10.1 223
30/06/2020 16:50 26.0 53 431.7 398 0.0 1.7 6.0 231
30/06/2020 17:00 26.6 52 383.9 494 0.0 2.0 7.2 269
30/06/2020 17:10 25.1 64 147.4 0 0.0 1.2 4.1 297
30/06/2020 17:20 24.2 69 179.7 32 0.0 1.4 4.9 292
30/06/2020 17:30 24.1 70 238.5 600 0.0 1.2 4.5 300
30/06/2020 17:40 23.9 70 239.9 516 0.0 1.9 6.9 306
30/06/2020 17:50 23.6 72 141.9 0 0.0 0.7 2.6 291
30/06/2020 18:00 23.3 73 101.7 0 0.0 1.3 4.8 296
30/06/2020 18:10 22.5 75 77.1 0 0.0 1.0 3.6 295
30/06/2020 18:20 22.1 77 34.3 0 0.0 0.9 3.1 269
30/06/2020 18:30 21.6 79 1.7 0 0.0 1.5 5.3 302
30/06/2020 18:40 21.2 80 51.8 124 0.0 2.5 9.0 310
30/06/2020 18:50 20.6 81 86.5 370 0.0 2.0 7.1 326
30/06/2020 19:00 20.4 82 39.5 0 0.0 1.1 3.9 215
30/06/2020 19:10 20.2 83 36.3 0 0.0 0.8 2.7 277
30/06/2020 19:20 20.2 84 23.4 0 0.0 0.6 2.2 165
30/06/2020 19:30 19.9 85 4.7 0 0.0 0.5 1.7 250
30/06/2020 19:40 19.6 86 0.0 0 0.0 1.1 3.8 212
30/06/2020 19:50 19.6 84 0.0 0 0.0 1.5 5.3 217
30/06/2020 20:00 19.8 82 0.0 0 0.0 1.1 3.9 211
30/06/2020 20:10 19.5 84 0.0 0 0.0 0.6 2.1 227
30/06/2020 20:20 19.1 85 0.0 0 0.0 0.2 0.8 211
30/06/2020 20:30 18.7 87 0.0 0 0.0 0.6 2.2 144
30/06/2020 20:40 18.3 88 0.0 0 0.0 0.7 2.7 263
30/06/2020 20:50 18.1 91 0.0 0 0.0 0.8 2.9 190
30/06/2020 21:00 17.9 92 0.0 0 0.0 0.8 3.0 233
30/06/2020 21:10 17.6 93 0.0 0 0.0 0.5 1.7 9
30/06/2020 21:20 17.3 94 0.0 0 0.0 1.0 3.7 74
30/06/2020 21:30 17.3 94 0.0 0 0.0 0.7 2.6 47
30/06/2020 21:40 17.1 94 0.0 0 0.0 1.1 3.9 255
30/06/2020 21:50 17.0 94 0.0 0 0.0 0.3 0.9 344
30/06/2020 22:00 16.7 94 0.0 0 0.0 0.4 1.4 298
30/06/2020 22:10 16.5 94 0.0 0 0.0 0.8 2.8 208
30/06/2020 22:20 16.5 93 0.0 0 0.0 1.6 5.7 204
30/06/2020 22:30 17.5 84 0.0 0 0.0 1.7 6.0 207
30/06/2020 22:40 18.4 76 0.0 0 0.0 1.2 4.1 197
30/06/2020 22:50 17.8 78 0.0 0 0.0 1.4 5.0 217
30/06/2020 23:00 17.2 80 0.0 0 0.0 0.9 3.1 250
30/06/2020 23:10 16.8 81 0.0 0 0.0 1.2 4.2 63
30/06/2020 23:20 16.5 81 0.0 0 0.0 1.7 6.1 68
30/06/2020 23:30 16.5 80 0.0 0 0.0 0.6 2.1 87
30/06/2020 23:40 15.8 84 0.0 0 0.0 0.3 1.2 248
30/06/2020 23:50 15.3 85 0.0 0 0.0 0.2 0.9 234
Anterior Página 1 de 1 Siguiente

NOTA: Tipo de datos según el color:
   - Valores diarios o 10 minutos correctos
   - Valores diarios calculados a partir de un número de datos 10 minutos menor que 144 y mayor que 120, o de un número de datos semihorarios menor que 48 y mayor que 40 (caso de las estaciones de INTIA y del Ministerio)
   - Valores diez minutos estimados


Contacto        Enlaces        Aviso legal